Time;durP1;ratioP1;P1;durP2;ratioP2;P2;SDS_P1;SDS_P2;PMS_P1;PMS_P2;Temp;Humidity;BMP_temperature;BMP_pressure;BME280_temperature;BME280_humidity;BME280_pressure;Samples;Min_cycle;Max_cycle;Signal;HPM_P1;HPM_P2
2022/09/24 00:02:16;;;;;;;8.40;7.60;;;10.90;99.90;;;-141.84;72.38;19112.75;5032008;28;20856;-65
2022/09/24 00:04:45;;;;;;;9.30;8.33;;;10.80;99.90;;;-141.84;72.39;19078.19;5032066;28;20250;-66
2022/09/24 00:07:14;;;;;;;10.10;9.03;;;10.80;99.90;;;-141.84;73.11;19084.28;5032013;28;20577;-67
2022/09/24 00:09:42;;;;;;;9.87;8.97;;;10.70;99.90;;;-141.84;72.92;19068.03;5032114;28;20218;-68
2022/09/24 00:12:12;;;;;;;9.47;8.57;;;10.70;99.90;;;-141.84;73.12;19074.13;5031943;28;20253;-66
2022/09/24 00:14:40;;;;;;;9.90;8.93;;;10.60;99.90;;;-141.84;72.83;19092.41;5031906;28;20225;-67
2022/09/24 00:17:08;;;;;;;11.87;9.77;;;10.70;99.90;;;-141.84;72.55;19070.06;5032002;28;20529;-67
2022/09/24 00:19:36;;;;;;;9.33;8.43;;;10.70;99.90;;;-141.84;72.36;19090.38;5031656;28;20280;-67
2022/09/24 00:22:04;;;;;;;10.10;9.10;;;10.70;99.90;;;-141.84;72.66;19047.72;5031857;28;20202;-66
2022/09/24 00:27:28;;;;;;;8.90;7.97;;;10.60;99.90;;;-141.84;73.51;19059.91;5016145;28;20221;-67
2022/09/24 00:29:56;;;;;;;9.87;8.97;;;10.50;99.90;;;-141.84;73.47;19053.81;5051245;28;20233;-66
2022/09/24 00:32:24;;;;;;;10.63;9.53;;;10.60;99.90;;;-141.84;73.41;19013.16;5051431;28;20245;-67
2022/09/24 00:34:52;;;;;;;9.70;8.80;;;10.50;99.90;;;-141.84;72.89;19021.31;5051396;28;20232;-66
2022/09/24 00:37:21;;;;;;;10.83;9.27;;;10.50;99.90;;;-141.84;73.27;19011.13;5051645;28;20260;-67
2022/09/24 00:39:50;;;;;;;9.37;8.47;;;10.50;99.90;;;-141.84;73.18;19015.19;5051922;28;20227;-67
2022/09/24 00:42:19;;;;;;;10.27;8.87;;;10.40;99.90;;;-141.84;73.80;18988.78;5051391;28;20233;-67
2022/09/24 00:44:53;;;;;;;9.90;8.63;;;10.40;99.90;;;-141.84;73.89;19021.31;5051107;28;20228;-67
2022/09/24 00:47:35;;;;;;;9.13;8.30;;;10.40;99.90;;;-141.84;74.22;18976.59;5051083;28;20225;-67
2022/09/24 00:50:19;;;;;;;9.47;8.67;;;10.30;99.90;;;-141.84;74.31;18966.44;5051391;28;20221;-67
2022/09/24 00:52:55;;;;;;;9.27;8.30;;;10.30;99.90;;;-141.84;74.26;18980.66;5050666;28;20236;-67
2022/09/24 00:55:27;;;;;;;10.33;9.20;;;10.30;99.90;;;-141.84;73.26;19023.34;5051041;28;20224;-66
2022/09/24 00:58:00;;;;;;;9.77;8.83;;;10.30;99.90;;;-141.84;72.34;19045.69;5051548;28;20232;-65
2022/09/24 01:00:28;;;;;;;10.63;8.63;;;10.50;99.90;;;-141.84;71.95;19033.50;5031358;28;20596;-66
2022/09/24 01:03:02;;;;;;;10.17;9.17;;;10.50;99.90;;;-141.84;72.63;18976.59;5046863;28;20792;-66
2022/09/24 01:05:31;;;;;;;9.60;8.60;;;10.50;99.90;;;-141.84;71.73;19043.66;5038468;28;20226;-66
2022/09/24 01:07:59;;;;;;;8.70;7.90;;;10.50;99.90;;;-141.84;71.18;19055.84;5038745;28;20225;-66
2022/09/24 01:10:49;;;;;;;9.00;8.10;;;10.60;99.90;;;-141.84;71.57;19019.28;5050456;28;20221;-65
2022/09/24 01:14:03;;;;;;;8.73;7.93;;;10.60;99.90;;;-141.84;71.50;19007.06;5051025;28;20189;-66
2022/09/24 01:16:45;;;;;;;9.67;8.60;;;10.50;99.90;;;-141.84;71.59;19041.63;5050770;28;20591;-66
2022/09/24 01:19:48;;;;;;;9.23;7.60;;;10.50;99.90;;;-141.84;70.04;19086.31;5050869;28;20216;-66
2022/09/24 01:22:37;;;;;;;9.03;8.00;;;10.60;99.90;;;-141.84;70.27;19051.78;5050745;28;20196;-66
2022/09/24 01:25:16;;;;;;;8.90;8.00;;;10.60;99.90;;;-141.84;70.13;19033.50;5050490;28;20196;-66
2022/09/24 01:28:07;;;;;;;9.17;7.40;;;10.60;99.90;;;-141.84;70.40;19055.84;5051471;28;20190;-66
2022/09/24 01:30:40;;;;;;;8.33;7.37;;;10.70;99.90;;;-141.84;70.54;19051.78;5050473;28;20274;-65
2022/09/24 01:33:20;;;;;;;7.80;7.00;;;10.60;99.90;;;-141.84;69.77;19072.09;5050356;28;20234;-67
2022/09/24 01:35:53;;;;;;;8.00;7.00;;;10.60;99.90;;;-141.84;69.97;19033.50;5050109;28;20503;-68
2022/09/24 01:38:27;;;;;;;8.17;7.37;;;10.60;99.90;;;-141.84;69.27;19104.59;5050414;28;20229;-67
2022/09/24 01:41:01;;;;;;;7.47;6.70;;;10.70;99.90;;;-141.84;68.88;19094.44;5050394;28;20721;-66
2022/09/24 01:43:31;;;;;;;8.23;7.13;;;10.80;99.90;;;-141.84;68.85;19086.31;5050542;28;20227;-66
2022/09/24 01:46:05;;;;;;;8.10;7.30;;;10.80;99.90;;;-141.84;68.47;19108.69;5050875;28;20237;-67
2022/09/24 01:48:37;;;;;;;9.23;6.80;;;10.80;99.90;;;-141.84;68.11;19100.53;5050705;28;20197;-66
2022/09/24 01:51:13;;;;;;;8.57;7.67;;;10.80;99.90;;;-141.84;67.63;19143.22;5049910;28;20306;-65
2022/09/24 01:53:47;;;;;;;7.47;6.87;;;10.80;99.90;;;-141.84;67.88;19122.91;5050131;28;20233;-67
2022/09/24 01:56:25;;;;;;;7.97;7.17;;;10.80;99.90;;;-141.84;67.40;19157.44;5050241;28;20225;-66
2022/09/24 01:59:02;;;;;;;8.70;7.27;;;10.80;99.90;;;-141.84;67.24;19133.06;5050154;28;20232;-66
2022/09/24 02:01:40;;;;;;;8.07;7.27;;;10.80;99.90;;;-141.84;68.09;19126.97;5050341;28;20231;-67
2022/09/24 02:04:15;;;;;;;7.47;6.70;;;10.80;99.90;;;-141.84;68.83;19092.41;5050125;28;20220;-66
2022/09/24 02:06:51;;;;;;;7.50;6.80;;;10.70;99.90;;;-141.84;69.15;19078.19;5050642;28;20182;-67
2022/09/24 02:09:34;;;;;;;8.20;7.40;;;10.70;99.90;;;-141.84;68.77;19135.09;5049749;28;20225;-65
2022/09/24 02:12:09;;;;;;;7.10;6.50;;;10.60;99.90;;;-141.84;68.92;19061.94;5050005;28;20605;-66
2022/09/24 02:14:44;;;;;;;7.83;7.03;;;10.60;99.90;;;-141.84;69.33;19078.19;5053544;28;20278;-67
2022/09/24 02:17:15;;;;;;;7.17;6.47;;;10.60;99.90;;;-141.84;69.43;19072.09;5053901;28;20320;-67
2022/09/24 02:19:46;;;;;;;7.57;6.83;;;10.60;99.90;;;-141.84;69.41;19037.56;5054083;28;20235;-66
2022/09/24 02:22:14;;;;;;;8.13;7.43;;;10.60;99.90;;;-141.84;69.01;19094.44;5053978;28;20201;-68
2022/09/24 02:24:49;;;;;;;7.13;6.53;;;10.60;99.90;;;-141.84;69.14;19066.00;5054570;28;20205;-67
2022/09/24 02:27:18;;;;;;;8.30;7.50;;;10.60;99.90;;;-141.84;69.36;19051.78;5053737;28;20228;-65
2022/09/24 02:29:46;;;;;;;8.10;7.40;;;10.60;99.90;;;-141.84;69.53;19074.13;5053858;28;20229;-65
2022/09/24 02:32:20;;;;;;;8.13;6.73;;;10.70;99.90;;;-141.84;69.67;19059.91;5053833;28;20236;-67
2022/09/24 02:34:52;;;;;;;7.87;7.13;;;10.50;99.90;;;-141.84;68.52;19090.38;5053788;28;20224;-65
2022/09/24 02:37:24;;;;;;;7.67;6.90;;;10.60;99.90;;;-141.84;68.31;19106.66;5054043;28;20221;-65
2022/09/24 02:39:52;;;;;;;8.57;7.10;;;10.60;99.90;;;-141.84;68.71;19086.31;5054012;28;20221;-66
2022/09/24 02:42:21;;;;;;;8.17;6.67;;;10.60;99.90;;;-141.84;69.01;19045.69;5053593;28;20229;-67
2022/09/24 02:44:51;;;;;;;7.60;6.90;;;10.60;99.90;;;-141.84;69.49;19045.69;5053496;28;20608;-66
2022/09/24 02:47:20;;;;;;;7.43;6.73;;;10.50;99.90;;;-141.84;69.63;19082.25;5053453;28;20260;-65
2022/09/24 02:49:48;;;;;;;6.60;6.00;;;10.50;99.90;;;-141.84;70.11;19025.38;5053205;28;20713;-66
2022/09/24 02:52:17;;;;;;;7.57;6.87;;;10.50;99.90;;;-141.84;69.94;19025.38;5053223;28;20208;-65
2022/09/24 02:54:45;;;;;;;6.67;6.07;;;10.50;99.90;;;-141.84;69.97;19031.47;5053892;28;20201;-66
2022/09/24 02:57:13;;;;;;;6.60;6.00;;;10.40;99.90;;;-141.84;70.07;19015.19;5053104;28;20225;-65
2022/09/24 02:59:41;;;;;;;7.10;6.40;;;10.40;99.90;;;-141.84;70.34;19043.66;5053275;28;20302;-66
2022/09/24 03:02:09;;;;;;;7.23;6.53;;;10.40;99.90;;;-141.84;70.53;19025.38;5053022;28;20607;-66
2022/09/24 03:04:39;;;;;;;6.43;5.73;;;10.40;99.90;;;-141.84;70.38;19023.34;5053246;28;20634;-67
2022/09/24 03:07:08;;;;;;;6.80;6.10;;;10.40;99.90;;;-141.84;70.59;19029.44;5052675;28;20645;-66
2022/09/24 03:09:36;;;;;;;7.10;6.50;;;10.40;99.90;;;-141.84;69.56;19033.50;5053190;28;20573;-66
2022/09/24 03:12:04;;;;;;;7.43;6.73;;;10.40;99.90;;;-141.84;68.98;19084.28;5053109;28;20260;-66
2022/09/24 03:14:32;;;;;;;7.17;6.57;;;10.40;99.90;;;-141.84;67.77;19112.75;5052948;28;20232;-66
2022/09/24 03:17:00;;;;;;;7.27;6.60;;;10.60;99.90;;;-141.84;68.43;19076.16;5052608;28;20716;-66
2022/09/24 03:19:28;;;;;;;7.67;6.93;;;10.60;99.90;;;-141.84;68.62;19100.53;5052976;28;20264;-66
2022/09/24 03:21:57;;;;;;;7.23;6.60;;;10.60;99.90;;;-141.84;68.33;19059.91;5053310;28;20216;-67
2022/09/24 03:24:25;;;;;;;7.40;6.53;;;10.60;99.90;;;-141.84;67.68;19092.41;5052074;28;20224;-67
2022/09/24 03:26:53;;;;;;;6.90;6.30;;;10.60;99.90;;;-141.84;67.87;19110.72;5052322;28;20626;-66
2022/09/24 03:30:58;;;;;;;6.90;6.10;;;10.60;99.90;;;-141.84;68.32;19094.44;5052833;28;20240;-67
2022/09/24 03:32:08;;;;;;;6.80;6.20;;;10.60;99.90;;;-141.84;68.83;19104.59;5052644;28;20724;-66
2022/09/24 03:34:36;;;;;;;7.57;6.87;;;10.60;99.90;;;-141.84;68.26;19080.22;5052500;28;20225;-66
2022/09/24 03:37:06;;;;;;;7.80;6.57;;;10.60;99.90;;;-141.84;67.26;19108.69;5052446;28;20604;-67
2022/09/24 03:39:34;;;;;;;10.97;6.53;;;10.60;99.90;;;-141.84;67.62;19102.56;5052986;28;20221;-66
2022/09/24 03:42:02;;;;;;;7.30;6.57;;;10.60;99.90;;;-141.84;67.87;19116.81;5052162;28;20240;-65
2022/09/24 03:44:30;;;;;;;6.77;6.17;;;10.60;99.90;;;-141.84;68.66;19090.38;5052467;28;20232;-66
2022/09/24 03:46:58;;;;;;;7.40;6.80;;;10.60;99.90;;;-141.84;69.35;19074.13;5052253;28;20724;-66
2022/09/24 03:49:26;;;;;;;6.70;6.10;;;10.60;99.90;;;-141.84;69.73;19072.09;5052426;28;20601;-65
2022/09/24 03:51:54;;;;;;;6.90;6.20;;;10.50;99.90;;;-141.84;69.86;19021.31;5052709;28;20615;-66
2022/09/24 03:54:23;;;;;;;6.87;6.30;;;10.50;99.90;;;-141.84;70.34;19009.09;5051943;28;20229;-65
2022/09/24 03:56:51;;;;;;;6.60;6.00;;;10.40;99.90;;;-141.84;70.01;19033.50;5051941;28;20255;-65
2022/09/24 03:59:19;;;;;;;6.93;6.23;;;10.40;99.90;;;-141.84;69.57;19041.63;5052071;28;20247;-66
2022/09/24 04:01:47;;;;;;;6.83;6.23;;;10.40;99.90;;;-141.84;69.78;19019.28;5052115;28;20224;-65
2022/09/24 04:04:15;;;;;;;7.17;6.47;;;10.40;99.90;;;-141.84;69.92;19039.59;5051819;28;20232;-66
2022/09/24 04:06:43;;;;;;;7.50;6.70;;;10.40;99.90;;;-141.84;69.89;19021.31;5052468;28;20619;-65
2022/09/24 04:09:11;;;;;;;6.60;6.00;;;10.40;99.90;;;-141.84;70.17;19025.38;5051685;28;20225;-66
2022/09/24 04:11:42;;;;;;;6.20;5.60;;;10.40;99.90;;;-141.84;70.54;19009.09;5052064;28;20276;-65
2022/09/24 04:14:10;;;;;;;6.77;6.03;;;10.30;99.90;;;-141.84;70.87;19009.09;5052007;28;20225;-66
2022/09/24 04:16:38;;;;;;;7.07;6.30;;;10.30;99.90;;;-141.84;71.20;18984.72;5052087;28;20248;-65
2022/09/24 04:19:07;;;;;;;6.33;5.73;;;10.20;99.90;;;-141.84;71.55;18980.66;5052229;28;20299;-65
2022/09/24 04:21:35;;;;;;;7.83;7.03;;;10.20;99.90;;;-141.84;70.51;19011.13;5051749;28;20684;-66
2022/09/24 04:24:03;;;;;;;6.73;5.83;;;10.30;99.90;;;-141.84;70.83;18990.81;5051640;28;20233;-67
2022/09/24 04:26:31;;;;;;;6.97;6.37;;;10.20;99.90;;;-141.84;71.20;18992.84;5051686;28;20286;-65
2022/09/24 04:29:01;;;;;;;6.80;6.20;;;10.20;99.90;;;-141.84;71.34;18964.41;5051735;28;20279;-66
2022/09/24 04:31:31;;;;;;;8.30;6.80;;;10.10;99.90;;;-141.84;71.70;18980.66;5051541;28;20631;-65
2022/09/24 04:34:00;;;;;;;7.50;6.83;;;10.10;99.90;;;-141.84;72.01;18954.25;5051973;28;20186;-66
2022/09/24 04:36:28;;;;;;;7.27;6.10;;;10.10;99.90;;;-141.84;72.14;18972.53;5051202;28;20237;-65
2022/09/24 04:38:57;;;;;;;6.97;6.37;;;10.00;99.90;;;-141.84;72.52;18946.13;5050769;28;20236;-67
2022/09/24 04:41:25;;;;;;;7.90;7.23;;;10.00;99.90;;;-141.84;72.30;18946.13;5051273;28;20228;-66
2022/09/24 04:43:53;;;;;;;7.30;6.60;;;9.90;99.90;;;-141.84;72.80;18944.09;5051164;28;20225;-65
2022/09/24 04:46:22;;;;;;;7.27;6.50;;;9.90;99.90;;;-141.84;71.41;18986.75;5051683;28;20241;-66
2022/09/24 04:48:50;;;;;;;6.73;6.13;;;9.90;99.90;;;-141.84;71.77;18946.13;5051253;28;20201;-66
2022/09/24 04:51:20;;;;;;;6.97;6.37;;;9.90;99.90;;;-141.84;72.58;18950.19;5050733;28;20228;-66
2022/09/24 04:53:49;;;;;;;7.97;7.13;;;9.90;99.90;;;-141.84;71.88;18931.91;5050899;28;20244;-66
2022/09/24 04:56:17;;;;;;;7.10;6.40;;;9.90;99.90;;;-141.84;71.88;18944.09;5050758;28;20790;-65
2022/09/24 04:58:50;;;;;;;7.03;6.43;;;9.90;99.90;;;-141.84;72.09;18927.84;5050919;28;20233;-65
2022/09/24 05:01:19;;;;;;;7.70;7.00;;;9.90;99.90;;;-141.84;72.01;18923.78;5050741;28;20213;-66
2022/09/24 05:03:48;;;;;;;7.70;7.00;;;9.90;99.90;;;-141.84;72.92;18919.69;5051450;28;20300;-66
2022/09/24 05:06:16;;;;;;;8.17;7.47;;;9.80;99.90;;;-141.84;73.00;18913.59;5050552;28;20233;-67
2022/09/24 05:08:44;;;;;;;7.77;6.97;;;10.00;99.90;;;-141.84;73.68;18883.13;5050332;28;20646;-65
2022/09/24 05:11:12;;;;;;;7.77;6.97;;;9.70;99.90;;;-141.84;73.30;18875.00;5050528;28;20770;-66
2022/09/24 05:13:40;;;;;;;7.97;7.17;;;9.70;99.90;;;-141.84;73.51;18917.66;5050644;28;20217;-66
2022/09/24 05:16:09;;;;;;;7.80;6.90;;;9.70;99.90;;;-141.84;73.93;18842.50;5050707;28;20205;-67
2022/09/24 05:18:38;;;;;;;7.73;6.83;;;9.60;99.90;;;-141.84;73.83;18883.13;5051292;28;20370;-65
2022/09/24 05:21:08;;;;;;;7.50;6.80;;;9.60;99.90;;;-141.84;74.08;18872.97;5050359;28;20303;-67
2022/09/24 05:23:36;;;;;;;7.37;6.67;;;9.60;99.90;;;-141.84;74.35;18870.94;5050013;28;20233;-65
2022/09/24 05:28:49;;;;;;;7.43;6.80;;;9.60;99.90;;;-141.84;73.23;18895.31;5050297;28;20232;-66
2022/09/24 05:31:17;;;;;;;7.27;6.57;;;9.60;99.90;;;-141.84;73.88;18862.81;5050272;28;20711;-66
2022/09/24 05:33:45;;;;;;;7.40;6.80;;;9.60;99.90;;;-141.84;73.20;18899.38;5050993;28;20202;-64
2022/09/24 05:36:15;;;;;;;7.70;6.63;;;9.60;99.90;;;-141.84;72.76;18879.06;5050473;28;20232;-66
2022/09/24 05:38:43;;;;;;;8.33;7.53;;;9.70;99.90;;;-141.84;72.81;18883.13;5050108;28;20235;-67
2022/09/24 05:41:11;;;;;;;7.30;6.60;;;9.70;99.90;;;-141.84;73.47;18879.06;5050402;28;20295;-66
2022/09/24 05:43:40;;;;;;;7.87;7.10;;;9.70;99.90;;;-141.84;73.49;18856.72;5050283;28;20225;-67
2022/09/24 05:46:08;;;;;;;7.00;6.40;;;9.70;99.90;;;-141.84;73.91;18866.88;5050166;28;20209;-65
2022/09/24 05:48:36;;;;;;;7.73;6.70;;;9.70;99.90;;;-141.84;73.80;18872.97;5049701;28;20742;-67
2022/09/24 05:51:05;;;;;;;8.13;7.33;;;9.70;99.90;;;-141.84;73.55;18875.00;5050216;28;20228;-66
2022/09/24 05:53:35;;;;;;;7.37;6.77;;;9.60;99.90;;;-141.84;71.54;18923.78;5049837;28;20236;-68
2022/09/24 05:56:03;;;;;;;7.83;7.13;;;9.80;99.90;;;-141.84;71.22;18917.66;5050412;28;20612;-66
2022/09/24 05:58:31;;;;;;;7.07;6.47;;;9.90;99.90;;;-141.84;71.48;18915.63;5050170;28;20711;-66
2022/09/24 06:01:00;;;;;;;7.37;6.67;;;9.90;99.90;;;-141.84;72.15;18927.84;5050785;28;20264;-65
2022/09/24 06:03:30;;;;;;;7.40;6.70;;;10.00;99.90;;;-141.84;72.35;18917.66;5050230;28;20217;-66
2022/09/24 06:06:00;;;;;;;8.33;7.17;;;10.00;99.90;;;-141.84;71.99;18927.84;5049821;28;20233;-67
2022/09/24 06:08:31;;;;;;;7.03;6.33;;;10.10;99.90;;;-141.84;71.18;18946.13;5049890;28;20232;-66
2022/09/24 06:11:04;;;;;;;7.53;6.67;;;10.20;99.90;;;-141.84;69.48;18994.88;5049842;28;20224;-65
2022/09/24 06:13:33;;;;;;;7.80;7.10;;;10.30;99.90;;;-141.84;68.03;19049.75;5051039;28;20225;-66
2022/09/24 06:16:02;;;;;;;7.70;6.77;;;10.50;99.90;;;-141.84;68.33;18998.94;5050864;28;20205;-66
2022/09/24 06:18:31;;;;;;;6.63;6.03;;;10.60;99.90;;;-141.84;68.46;19076.16;5051558;28;20198;-67
2022/09/24 06:21:02;;;;;;;6.47;5.87;;;10.70;99.90;;;-141.84;68.89;19080.22;5050649;28;20225;-67
2022/09/24 06:23:30;;;;;;;6.43;5.83;;;10.80;99.90;;;-141.84;68.10;19104.59;5050612;28;20229;-66
2022/09/24 06:25:59;;;;;;;6.90;6.30;;;10.90;99.90;;;-141.84;68.06;19122.91;5050538;28;20625;-67
2022/09/24 06:28:28;;;;;;;6.10;5.60;;;10.90;99.90;;;-141.84;68.16;19116.81;5050903;28;20225;-66
2022/09/24 06:31:00;;;;;;;6.47;5.90;;;11.10;99.90;;;-141.84;67.59;19100.53;5050965;28;20725;-66
2022/09/24 06:33:29;;;;;;;7.53;6.53;;;11.10;99.90;;;-141.84;67.22;19135.09;5051025;28;20285;-66
2022/09/24 06:36:01;;;;;;;7.30;6.40;;;11.20;99.90;;;-141.84;66.56;19183.84;5050390;28;20641;-65
2022/09/24 06:38:29;;;;;;;7.27;6.27;;;11.30;99.90;;;-141.84;66.49;19222.47;5050399;28;20368;-66
2022/09/24 06:41:00;;;;;;;7.80;6.87;;;11.40;99.90;;;-141.84;66.58;19204.19;5050455;28;20221;-66
2022/09/24 06:43:30;;;;;;;6.87;6.27;;;11.50;99.90;;;-141.84;66.61;19206.22;5050674;28;20221;-67
2022/09/24 06:46:00;;;;;;;6.53;5.83;;;11.50;99.90;;;-141.84;65.60;19240.75;5051058;28;20190;-67
2022/09/24 06:48:29;;;;;;;6.07;5.47;;;11.50;99.90;;;-141.84;65.76;19244.81;5050959;28;20225;-67
2022/09/24 06:50:58;;;;;;;6.67;6.07;;;11.60;99.90;;;-141.84;65.45;19269.22;5050362;28;20252;-63
2022/09/24 06:53:26;;;;;;;6.33;5.73;;;11.70;99.90;;;-141.84;65.20;19281.41;5050186;28;20225;-64
2022/09/24 06:55:58;;;;;;;6.63;6.00;;;11.80;99.90;;;-141.84;64.95;19261.06;5050427;28;20225;-64
2022/09/24 06:58:26;;;;;;;7.20;6.50;;;11.90;99.90;;;-141.84;64.22;19336.25;5035681;28;20230;-63
2022/09/24 07:00:58;;;;;;;7.40;6.67;;;11.90;99.90;;;-141.84;63.49;19356.59;5033975;28;20697;-63
2022/09/24 07:03:28;;;;;;;6.50;6.00;;;12.00;99.90;;;-141.84;62.75;19450.06;5034337;28;20557;-63
2022/09/24 07:05:59;;;;;;;7.60;6.43;;;12.10;99.90;;;-141.84;62.14;19466.31;5033933;28;20234;-63
2022/09/24 07:08:27;;;;;;;6.43;5.80;;;12.20;99.90;;;-141.84;62.32;19519.16;5033823;28;20600;-62
2022/09/24 07:10:55;;;;;;;6.30;5.70;;;12.20;99.90;;;-141.84;62.50;19509.00;5033873;28;20268;-63
2022/09/24 07:13:24;;;;;;;7.03;6.20;;;12.30;99.90;;;-141.84;62.41;19480.53;5034384;28;20221;-64
2022/09/24 07:15:52;;;;;;;6.77;6.13;;;12.20;99.90;;;-141.84;62.94;19466.31;5034511;28;20272;-63
2022/09/24 07:18:22;;;;;;;7.67;5.83;;;12.20;99.90;;;-141.84;62.55;19458.19;5033827;28;20229;-63
2022/09/24 07:20:54;;;;;;;7.37;6.40;;;12.10;99.90;;;-141.84;62.70;19511.03;5033291;28;20703;-62
2022/09/24 07:23:22;;;;;;;9.30;6.57;;;12.10;99.90;;;-141.84;63.10;19441.94;5033673;28;20618;-63
2022/09/24 07:25:55;;;;;;;9.43;7.67;;;12.10;99.90;;;-141.84;63.16;19480.53;5033738;28;20218;-63
2022/09/24 07:28:23;;;;;;;7.93;6.83;;;12.10;99.90;;;-141.84;63.05;19466.31;5033916;28;20229;-64
2022/09/24 07:30:58;;;;;;;8.60;6.40;;;12.20;99.90;;;-141.84;61.95;19561.84;5034267;28;20272;-62
2022/09/24 07:33:28;;;;;;;8.00;6.07;;;12.30;99.90;;;-141.84;61.82;19586.22;5034114;28;20583;-62
2022/09/24 07:35:56;;;;;;;6.67;6.07;;;12.40;99.90;;;-141.84;61.80;19635.00;5033520;28;20244;-63
2022/09/24 07:38:24;;;;;;;6.60;6.00;;;12.50;99.90;;;-141.84;61.74;19596.38;5033376;28;20309;-64
2022/09/24 07:40:56;;;;;;;7.07;6.07;;;12.50;99.90;;;-141.84;61.17;19643.13;5033419;28;20234;-63
2022/09/24 07:43:25;;;;;;;6.50;5.83;;;12.60;99.90;;;-141.84;61.28;19691.91;5033573;28;20229;-64
2022/09/24 07:45:54;;;;;;;6.83;6.13;;;12.70;99.90;;;-141.84;60.19;19781.31;5033965;28;20198;-63
2022/09/24 07:48:23;;;;;;;6.63;5.77;;;12.90;99.90;;;-141.84;60.00;19817.91;5033239;28;20240;-63
2022/09/24 07:50:52;;;;;;;5.93;5.43;;;13.10;99.90;;;-141.84;60.07;19882.94;5033236;28;20222;-61
2022/09/24 07:53:21;;;;;;;6.43;5.82;;;13.20;99.90;;;-141.84;58.58;19976.44;5033000;28;20256;-63
2022/09/24 07:55:49;;;;;;;6.40;5.80;;;13.30;99.90;;;-141.84;57.63;20000.81;5032833;28;20787;-63
2022/09/24 07:58:17;;;;;;;6.60;6.00;;;13.50;99.90;;;-141.84;57.85;20029.28;5033287;28;20222;-64
2022/09/24 08:00:45;;;;;;;6.73;5.60;;;13.60;99.90;;;-141.84;56.84;20132.94;5033252;28;20202;-64
2022/09/24 08:03:13;;;;;;;8.15;6.00;;;13.70;99.90;;;-141.84;57.00;20090.25;5032631;28;20230;-62
2022/09/24 08:05:45;;;;;;;6.60;6.00;;;13.90;99.90;;;-141.84;56.11;20130.91;5032433;28;20230;-62
2022/09/24 08:08:15;;;;;;;6.60;6.00;;;14.00;99.90;;;-141.84;56.23;20175.63;5032699;28;20230;-64
2022/09/24 08:10:43;;;;;;;6.53;5.68;;;14.00;99.90;;;-141.84;56.26;20214.22;5032070;28;20280;-63
2022/09/24 08:13:11;;;;;;;6.10;5.50;;;14.20;99.90;;;-141.84;55.33;20252.84;5032929;28;20202;-65
2022/09/24 08:15:40;;;;;;;6.78;5.55;;;14.40;99.90;;;-141.84;55.74;20263.00;5033319;28;20198;-65
2022/09/24 08:18:09;;;;;;;5.72;5.22;;;14.50;99.90;;;-141.84;55.47;20267.09;5033029;28;20257;-64
2022/09/24 08:20:38;;;;;;;5.40;4.90;;;14.60;99.90;;;-141.84;55.64;20299.59;5032693;28;20234;-63
2022/09/24 08:23:09;;;;;;;6.85;5.65;;;14.70;99.90;;;-141.84;55.83;20297.56;5032257;28;20256;-64
2022/09/24 08:25:39;;;;;;;6.65;5.43;;;14.80;99.90;;;-141.84;55.99;20350.41;5032449;28;20237;-65
2022/09/24 08:28:10;;;;;;;7.30;5.30;;;14.80;99.90;;;-141.84;55.69;20315.88;5032397;28;20202;-63
2022/09/24 08:30:39;;;;;;;6.55;5.47;;;14.80;99.90;;;-141.84;54.92;20350.41;5033120;28;20197;-64
2022/09/24 08:33:08;;;;;;;6.25;5.45;;;15.00;99.90;;;-141.84;55.09;20376.84;5032141;28;20726;-63
2022/09/24 08:35:38;;;;;;;5.82;5.25;;;15.00;99.90;;;-141.84;54.90;20384.97;5032118;28;20252;-64
2022/09/24 08:38:08;;;;;;;6.72;5.57;;;15.10;99.90;;;-141.84;54.34;20405.31;5032020;28;20229;-64
2022/09/24 08:40:45;;;;;;;5.95;5.28;;;15.10;99.90;;;-141.84;54.08;20460.19;5032292;28;20221;-63
2022/09/24 08:43:37;;;;;;;6.15;5.43;;;15.20;99.90;;;-141.84;53.99;20447.97;5032108;28;20256;-64
2022/09/24 08:49:05;;;;;;;6.45;5.70;;;15.20;99.90;;;-141.84;53.08;20511.00;5032333;28;20210;-63
2022/09/24 08:51:43;;;;;;;5.75;5.25;;;15.30;99.90;;;-141.84;52.63;20484.56;5032495;28;20186;-64
2022/09/24 08:54:15;;;;;;;7.22;5.63;;;15.40;99.90;;;-141.84;53.03;20478.47;5031918;28;20229;-63
2022/09/24 08:56:46;;;;;;;5.38;4.97;;;15.30;99.90;;;-141.84;53.39;20515.06;5031912;28;20764;-64
2022/09/24 08:59:27;;;;;;;5.60;5.10;;;15.50;99.90;;;-141.84;53.05;20525.22;5031962;28;20236;-64
2022/09/24 09:02:19;;;;;;;5.88;5.38;;;15.70;99.90;;;-141.84;52.56;20606.53;5031832;28;20233;-64
2022/09/24 09:05:15;;;;;;;9.75;5.40;;;15.90;99.90;;;-141.84;52.84;20655.31;5032065;28;20255;-63
2022/09/24 09:07:54;;;;;;;7.45;5.50;;;16.10;99.90;;;-141.84;51.31;20695.97;5031386;28;20240;-64
2022/09/24 09:10:28;;;;;;;6.55;5.95;;;16.10;99.90;;;-141.84;51.54;20643.13;5031463;28;20229;-63
2022/09/24 09:13:10;;;;;;;7.03;5.72;;;16.30;99.90;;;-141.84;51.00;20667.53;5032310;28;20190;-63
2022/09/24 09:15:44;;;;;;;5.75;5.10;;;16.20;99.90;;;-141.84;51.25;20683.78;5032224;28;20263;-63
2022/09/24 09:18:21;;;;;;;6.75;6.07;;;16.20;99.90;;;-141.84;51.23;20720.38;5031370;28;20272;-63
2022/09/24 09:20:50;;;;;;;5.40;4.90;;;16.20;99.90;;;-141.84;49.88;20742.75;5031416;28;20237;-64
2022/09/24 09:23:21;;;;;;;7.47;5.38;;;16.40;99.90;;;-141.84;49.52;20746.81;5031046;28;20313;-64
2022/09/24 09:25:54;;;;;;;6.07;5.35;;;16.50;99.90;;;-141.84;49.14;20781.38;5031301;28;20713;-63
2022/09/24 09:28:27;;;;;;;5.82;5.32;;;16.70;99.90;;;-141.84;50.27;20742.75;5031557;28;20217;-64
2022/09/24 09:31:07;;;;;;;5.90;5.40;;;16.50;99.90;;;-141.84;50.23;20754.94;5032059;28;20182;-63
2022/09/24 09:34:08;;;;;;;6.50;4.60;;;16.50;99.90;;;-141.84;50.07;20752.91;5031625;28;20720;-64
2022/09/24 09:36:53;;;;;;;5.55;5.00;;;16.60;99.90;;;-141.84;50.09;20718.34;5011860;28;20603;-64
2022/09/24 09:39:37;;;;;;;4.70;4.30;;;16.60;99.90;;;-141.84;49.89;20740.69;5011347;28;20226;-63
2022/09/24 09:42:26;;;;;;;4.90;4.50;;;16.60;99.90;;;-141.84;49.67;20706.16;5011329;28;20227;-63
2022/09/24 09:44:57;;;;;;;6.05;4.70;;;16.50;99.90;;;-141.84;49.09;20730.53;5011449;28;20226;-63
2022/09/24 09:47:39;;;;;;;5.93;5.43;;;16.60;99.90;;;-141.84;49.93;20730.53;5011372;28;20729;-63
2022/09/24 09:50:25;;;;;;;4.93;4.43;;;16.60;99.90;;;-141.84;49.08;20769.16;5011440;28;20233;-63
2022/09/24 09:52:53;;;;;;;5.10;4.60;;;16.70;99.90;;;-141.84;48.71;20817.94;5011059;28;20237;-63
2022/09/24 09:55:25;;;;;;;6.15;4.50;;;16.70;99.90;;;-141.84;48.75;20781.38;5011439;28;20230;-64
2022/09/24 09:58:09;;;;;;;5.30;4.30;;;16.90;99.90;;;-141.84;48.76;20828.13;5011858;28;20183;-63
2022/09/24 10:00:39;;;;;;;5.53;5.03;;;17.00;99.90;;;-141.84;48.48;20842.34;5011686;28;20203;-63
2022/09/24 10:03:20;;;;;;;5.78;4.18;;;17.00;99.90;;;-141.84;48.77;20866.75;5028199;28;20229;-63
2022/09/24 10:05:55;;;;;;;5.32;4.35;;;17.00;99.90;;;-141.84;48.67;20838.28;5045123;28;20233;-63
2022/09/24 10:08:25;;;;;;;4.75;4.35;;;17.00;99.90;;;-141.84;48.71;20811.84;5050578;28;20233;-63
2022/09/24 10:10:57;;;;;;;4.85;4.35;;;17.10;99.90;;;-141.84;48.53;20848.44;5050784;28;20225;-65
2022/09/24 10:13:27;;;;;;;5.25;4.72;;;17.10;99.90;;;-141.84;48.91;20807.78;5051100;28;20240;-63
2022/09/24 10:16:00;;;;;;;4.68;4.28;;;17.10;99.90;;;-141.84;48.90;20854.53;5051207;28;20578;-62
2022/09/24 10:18:33;;;;;;;4.93;4.53;;;17.20;99.90;;;-141.84;48.74;20826.09;5051227;28;20251;-63
2022/09/24 10:21:05;;;;;;;4.90;4.50;;;17.30;99.90;;;-141.84;48.64;20822.03;5050939;28;20226;-66
2022/09/24 10:23:39;;;;;;;4.55;4.15;;;17.30;99.90;;;-141.84;48.81;20834.22;5050144;28;20248;-66
2022/09/24 10:26:09;;;;;;;4.68;4.28;;;17.40;99.90;;;-141.84;48.42;20878.94;5050711;28;20240;-65
2022/09/24 10:31:40;;;;;;;4.95;4.45;;;17.60;99.90;;;-141.84;47.39;20923.66;5050825;28;20229;-62
2022/09/24 10:34:23;;;;;;;4.57;4.18;;;17.60;99.90;;;-141.84;47.41;20948.06;5051585;28;20182;-64
2022/09/24 10:36:53;;;;;;;4.63;4.00;;;17.70;99.90;;;-141.84;47.30;20966.34;5054853;28;20185;-63
2022/09/24 10:39:22;;;;;;;4.78;4.20;;;17.70;99.90;;;-141.84;47.31;20954.16;5054076;28;20229;-63